Time;durP1;ratioP1;P1;durP2;ratioP2;P2;SDS_P1;SDS_P2;PMS_P1;PMS_P2;Temp;Humidity;BMP_temperature;BMP_pressure;BME280_temperature;BME280_humidity;BME280_pressure;Samples;Min_cycle;Max_cycle;Signal;HPM_P1;HPM_P2
2021/12/07 00:01:44;;;;;;;13.40;12.47;;;;;;;4.85;100.00;91538.31;5088475;28;20244;-75
2021/12/07 00:04:10;;;;;;;11.47;10.77;;;;;;;4.89;100.00;91523.78;5090645;28;20205;-75
2021/12/07 00:06:36;;;;;;;12.20;11.43;;;;;;;4.99;100.00;91534.06;5091808;28;20229;-75
2021/12/07 00:09:06;;;;;;;9.67;9.27;;;;;;;5.13;100.00;91540.16;5091038;28;20207;-75
2021/12/07 00:11:33;;;;;;;9.67;9.17;;;;;;;5.27;100.00;91535.13;5091818;28;20225;-75
2021/12/07 00:13:58;;;;;;;10.03;9.63;;;;;;;5.03;100.00;91521.38;5091755;28;20283;-75
2021/12/07 00:16:25;;;;;;;10.57;10.07;;;;;;;5.00;100.00;91520.09;5091138;28;20228;-75
2021/12/07 00:18:51;;;;;;;10.43;10.03;;;;;;;5.20;100.00;91522.50;5092391;28;20199;-75
2021/12/07 00:21:18;;;;;;;10.40;9.87;;;;;;;5.27;100.00;91524.78;5091612;28;20228;-75
2021/12/07 00:23:46;;;;;;;10.03;9.60;;;;;;;5.29;100.00;91520.88;5090024;28;20204;-75
2021/12/07 00:26:12;;;;;;;11.10;10.47;;;;;;;5.37;100.00;91516.94;5091937;28;20232;-75
2021/12/07 00:28:38;;;;;;;12.70;11.90;;;;;;;5.43;100.00;91515.84;5091013;28;20200;-76
2021/12/07 00:31:22;;;;;;;12.20;11.50;;;;;;;5.47;100.00;91519.41;5090833;28;20295;-76
2021/12/07 00:34:06;;;;;;;11.03;10.53;;;;;;;5.42;100.00;91537.56;5091019;28;20229;-76
2021/12/07 00:36:32;;;;;;;11.00;10.40;;;;;;;5.62;100.00;91527.03;5090145;28;20228;-76
2021/12/07 00:38:58;;;;;;;14.23;12.97;;;;;;;5.64;100.00;91545.63;5091421;28;20249;-75
2021/12/07 00:41:23;;;;;;;9.57;9.07;;;;;;;5.82;100.00;91544.97;5090713;28;20239;-75
2021/12/07 00:43:49;;;;;;;10.40;9.80;;;;;;;5.90;98.43;91534.75;5088698;28;20188;-76
2021/12/07 00:46:14;;;;;;;10.63;10.10;;;;;;;5.85;97.79;91541.84;5089110;28;20296;-75
2021/12/07 00:48:40;;;;;;;10.93;10.43;;;;;;;5.64;99.39;91535.28;5091661;28;20185;-75
2021/12/07 00:51:05;;;;;;;10.53;10.03;;;;;;;5.69;99.68;91537.81;5091348;28;20235;-75
2021/12/07 00:53:31;;;;;;;11.07;10.47;;;;;;;5.63;99.54;91531.16;5090947;28;20996;-75
2021/12/07 00:56:00;;;;;;;10.13;9.53;;;;;;;5.75;99.23;91547.06;5090468;28;20276;-76
2021/12/07 00:58:27;;;;;;;11.00;10.40;;;;;;;5.50;98.59;91524.03;5089925;28;20378;-75
2021/12/07 01:00:59;;;;;;;11.33;10.73;;;;;;;5.27;99.33;91537.72;5090396;28;20311;-76
2021/12/07 01:03:27;;;;;;;11.27;10.77;;;;;;;5.21;99.36;91518.09;5091366;28;20280;-75
2021/12/07 01:06:04;;;;;;;10.30;9.73;;;;;;;5.16;99.59;91520.72;5089331;28;20228;-75
2021/12/07 01:25:06;;;;;;;10.97;10.47;;;;;;;5.32;100.00;91516.97;5089316;28;20227;-75
2021/12/07 01:27:31;;;;;;;11.67;11.07;;;;;;;5.43;100.00;91516.59;5090854;28;20211;-75
2021/12/07 01:30:10;;;;;;;11.80;10.97;;;;;;;5.34;100.00;91530.41;5089177;28;20236;-74
2021/12/07 01:32:51;;;;;;;10.63;10.03;;;;;;;5.31;100.00;91515.44;5090488;28;21296;-75
2021/12/07 01:35:41;;;;;;;10.30;9.90;;;;;;;4.91;100.00;91481.13;5089670;28;20242;-75
2021/12/07 02:01:48;;;;;;;10.03;9.63;;;;;;;5.45;99.05;91491.22;5090743;28;20247;-75
2021/12/07 02:04:13;;;;;;;9.47;9.07;;;;;;;5.61;98.98;91491.81;5088548;28;20193;-76
2021/12/07 02:06:39;;;;;;;9.67;9.17;;;;;;;5.62;99.13;91493.38;5089172;28;20227;-76
2021/12/07 02:09:07;;;;;;;8.80;8.40;;;;;;;5.49;100.00;91492.22;5088641;28;20204;-76
2021/12/07 02:11:33;;;;;;;9.80;9.27;;;;;;;5.41;100.00;91468.75;5089391;28;20659;-76
2021/12/07 02:16:29;;;;;;;8.93;8.53;;;;;;;5.35;99.58;91475.81;5088576;28;20224;-75
2021/12/07 02:18:54;;;;;;;9.90;9.40;;;;;;;5.38;98.66;91479.66;5089262;28;20188;-76
2021/12/07 02:21:27;;;;;;;10.73;10.23;;;;;;;5.37;98.78;91478.88;5088286;28;20284;-76
2021/12/07 02:23:53;;;;;;;10.17;9.57;;;;;;;5.23;99.89;91475.38;5088904;28;20193;-77
2021/12/07 02:26:20;;;;;;;10.80;10.20;;;;;;;5.24;100.00;91463.22;5090184;28;20225;-77
2021/12/07 02:28:46;;;;;;;10.97;10.03;;;;;;;5.01;100.00;91456.22;5088062;28;20192;-76
2021/12/07 02:31:12;;;;;;;11.23;10.67;;;;;;;4.92;100.00;91467.16;5088045;28;20223;-76
2021/12/07 02:33:38;;;;;;;11.23;10.53;;;;;;;4.76;100.00;91468.31;5089100;28;20252;-76
2021/12/07 02:36:05;;;;;;;11.30;10.70;;;;;;;4.60;100.00;91469.47;5089856;28;20238;-75
2021/12/07 02:38:31;;;;;;;10.60;10.03;;;;;;;4.57;100.00;91467.44;5088630;28;20204;-76
2021/12/07 02:40:57;;;;;;;9.27;8.87;;;;;;;4.32;100.00;91467.63;5087128;28;20297;-76
2021/12/07 02:43:22;;;;;;;11.47;10.83;;;;;;;4.26;100.00;91462.75;5089466;28;20843;-76
2021/12/07 02:45:48;;;;;;;12.13;11.17;;;;;;;4.05;100.00;91462.09;5088605;28;20228;-76
2021/12/07 02:48:13;;;;;;;10.90;10.33;;;;;;;4.13;100.00;91427.19;5088736;28;20583;-76
2021/12/07 02:50:39;;;;;;;11.20;10.70;;;;;;;4.25;100.00;91461.22;5089397;28;20255;-76
2021/12/07 02:53:05;;;;;;;12.53;11.90;;;;;;;4.25;100.00;91466.38;5089688;28;20196;-76
2021/12/07 02:55:34;;;;;;;11.97;11.37;;;;;;;4.26;100.00;91458.34;5088421;28;20295;-76
2021/12/07 02:58:03;;;;;;;12.33;11.63;;;;;;;4.08;100.00;91451.22;5089520;28;20245;-76
2021/12/07 03:00:36;;;;;;;12.23;11.43;;;;;;;4.15;100.00;91446.53;5087540;28;20224;-76
2021/12/07 03:03:07;;;;;;;12.27;11.57;;;;;;;4.45;100.00;91469.56;5089768;28;20228;-76
2021/12/07 03:26:37;;;;;;;11.30;10.70;;;;;;;3.71;100.00;91444.97;5088690;28;20235;-76
2021/12/07 03:29:02;;;;;;;10.50;10.00;;;;;;;3.70;100.00;91431.31;5089428;28;20189;-76
2021/12/07 03:31:29;;;;;;;10.70;10.10;;;;;;;3.77;100.00;91457.59;5086682;28;20220;-76
2021/12/07 03:33:57;;;;;;;11.00;10.23;;;;;;;3.70;100.00;91446.78;5088939;28;20192;-77
2021/12/07 03:36:23;;;;;;;10.67;10.17;;;;;;;3.59;100.00;91437.53;5087714;28;20223;-76
2021/12/07 03:38:48;;;;;;;10.47;9.93;;;;;;;3.67;100.00;91442.16;5088321;28;20196;-76
2021/12/07 03:41:14;;;;;;;11.47;10.97;;;;;;;3.85;100.00;91451.88;5088228;28;20244;-76
2021/12/07 03:43:40;;;;;;;10.83;10.17;;;;;;;3.90;99.86;91454.44;5088233;28;20192;-76
2021/12/07 03:46:06;;;;;;;11.37;10.77;;;;;;;3.80;98.38;91454.47;5088753;28;20241;-75
2021/12/07 03:48:32;;;;;;;10.43;9.83;;;;;;;3.65;99.86;91438.28;5090970;28;20288;-76
2021/12/07 04:31:08;;;;;;;10.53;10.03;;;;;;;2.53;100.00;91451.69;5115898;27;20563;-75
2021/12/07 04:33:34;;;;;;;11.40;10.83;;;;;;;2.78;100.00;91449.91;5094246;28;20184;-75
2021/12/07 04:36:00;;;;;;;10.63;10.13;;;;;;;2.75;100.00;91452.22;5091250;28;20236;-75
2021/12/07 04:38:26;;;;;;;11.90;11.20;;;;;;;2.73;100.00;91420.78;5095671;28;20181;-76
2021/12/07 04:40:52;;;;;;;10.67;10.17;;;;;;;3.09;100.00;91443.66;5094383;28;20231;-76
2021/12/07 04:43:18;;;;;;;12.07;11.47;;;;;;;2.90;100.00;91437.50;5095744;28;20207;-73
2021/12/07 04:58:54;;;;;;;10.20;9.67;;;;;;;2.32;99.14;91424.44;5093835;28;20264;-80
2021/12/07 05:01:20;;;;;;;10.27;9.80;;;;;;;2.38;98.54;91434.44;5092000;28;20237;-78
2021/12/07 05:03:47;;;;;;;11.13;10.53;;;;;;;2.68;98.92;91443.97;5092821;28;20273;-79
2021/12/07 05:06:13;;;;;;;11.20;10.70;;;;;;;2.49;97.77;91443.72;5080905;28;20228;-75
2021/12/07 05:13:38;;;;;;;11.83;11.23;;;;;;;2.49;98.13;91440.38;5074541;28;20197;-78
2021/12/07 05:16:29;;;;;;;11.00;10.43;;;;;;;2.40;98.12;91444.47;5082264;28;20216;-75
2021/12/07 05:37:56;;;;;;;12.80;12.10;;;;;;;2.20;97.91;91444.47;5085921;28;20778;-82
2021/12/07 05:40:32;;;;;;;10.83;10.33;;;;;;;2.06;98.02;91440.84;5076944;28;20237;-81
2021/12/07 05:42:59;;;;;;;10.17;9.63;;;;;;;2.13;99.07;91419.00;5046593;28;20223;-83
2021/12/07 05:45:30;;;;;;;10.10;9.63;;;;;;;2.15;98.06;91421.34;5046402;28;20225;-83
2021/12/07 05:47:56;;;;;;;11.07;10.57;;;;;;;2.10;98.14;91406.63;5047151;28;20194;-83
2021/12/07 05:50:25;;;;;;;11.63;11.13;;;;;;;2.18;97.24;91428.53;5045248;28;20237;-83
2021/12/07 05:52:50;;;;;;;12.20;11.60;;;;;;;2.22;98.29;91421.84;5043884;28;20183;-74
2021/12/07 05:55:16;;;;;;;11.83;11.30;;;;;;;1.92;98.61;91422.56;5042853;28;20261;-77
2021/12/07 05:57:42;;;;;;;14.90;14.00;;;;;;;1.90;98.55;91423.88;5043970;28;20211;-76
2021/12/07 06:00:12;;;;;;;12.07;11.37;;;;;;;1.93;98.89;91431.84;5045643;28;20920;-73
2021/12/07 06:02:39;;;;;;;11.27;10.70;;;;;;;2.07;98.47;91429.56;5044063;28;20220;-79
2021/12/07 06:05:05;;;;;;;11.23;10.73;;;;;;;2.22;97.21;91430.34;5043066;28;20216;-82
2021/12/07 06:07:30;;;;;;;11.30;10.70;;;;;;;2.08;97.71;91425.94;5044641;28;20240;-79
2021/12/07 06:09:56;;;;;;;10.57;9.97;;;;;;;1.81;97.30;91420.22;5044084;28;20241;-82
2021/12/07 06:12:21;;;;;;;10.77;10.23;;;;;;;2.13;97.64;91428.53;5043893;28;20719;-81
2021/12/07 06:14:46;;;;;;;11.43;10.93;;;;;;;2.16;96.45;91433.94;5044380;28;20213;-82
2021/12/07 06:17:13;;;;;;;13.73;12.93;;;;;;;2.02;96.91;91426.97;5043048;28;20226;-79
2021/12/07 06:19:38;;;;;;;10.50;10.10;;;;;;;1.99;98.41;91437.78;5045905;28;20213;-79
2021/12/07 06:22:05;;;;;;;11.33;10.73;;;;;;;1.95;96.94;91439.28;5044327;28;20222;-80
2021/12/07 06:24:31;;;;;;;12.73;12.17;;;;;;;2.15;97.95;91432.38;5046142;28;20174;-79
2021/12/07 06:26:57;;;;;;;10.47;9.97;;;;;;;2.22;97.14;91432.13;5043485;28;20218;-77
2021/12/07 06:29:23;;;;;;;11.33;10.83;;;;;;;1.90;96.32;91380.13;5044661;28;20201;-79
2021/12/07 06:31:49;;;;;;;11.63;10.93;;;;;;;2.16;96.24;91407.41;5043983;28;20226;-77
2021/12/07 06:34:14;;;;;;;10.67;10.17;;;;;;;1.95;96.51;91409.19;5042666;28;20206;-78
2021/12/07 06:36:40;;;;;;;11.07;10.57;;;;;;;2.00;96.73;91419.50;5042858;28;20242;-79
2021/12/07 06:39:07;;;;;;;11.60;11.10;;;;;;;2.35;97.82;91423.91;5045359;28;20225;-78
2021/12/07 06:41:33;;;;;;;13.00;12.40;;;;;;;2.14;95.83;91424.91;5045507;28;20236;-79
2021/12/07 06:43:58;;;;;;;10.47;10.07;;;;;;;2.03;96.22;91420.78;5042802;28;20272;-78
2021/12/07 06:46:24;;;;;;;11.63;11.13;;;;;;;1.89;97.70;91422.31;5042382;28;20306;-78
2021/12/07 06:48:49;;;;;;;11.43;10.83;;;;;;;1.58;97.08;91385.47;5030470;28;20209;-77
2021/12/07 06:51:15;;;;;;;9.90;9.30;;;;;;;1.71;97.38;91436.44;5026523;28;20252;-77
2021/12/07 06:53:40;;;;;;;10.97;10.47;;;;;;;1.34;98.31;91403.16;5028122;28;20255;-77
2021/12/07 06:56:08;;;;;;;11.93;11.43;;;;;;;1.71;98.66;91426.16;5028174;28;20225;-79
2021/12/07 06:58:35;;;;;;;10.97;10.47;;;;;;;1.55;97.79;91430.50;5030085;28;20254;-77
2021/12/07 07:01:02;;;;;;;10.70;10.20;;;;;;;1.51;98.05;91416.56;5031448;28;20318;-78
2021/12/07 07:03:28;;;;;;;11.60;11.10;;;;;;;1.41;98.52;91431.97;5028170;28;20195;-80
2021/12/07 07:05:53;;;;;;;10.80;10.30;;;;;;;1.31;98.75;91415.72;5030048;28;20219;-78
2021/12/07 07:08:19;;;;;;;11.33;10.83;;;;;;;1.46;98.64;91424.25;5029055;28;20195;-82
2021/12/07 07:10:45;;;;;;;11.23;10.53;;;;;;;1.29;98.90;91415.97;5030236;28;20234;-80
2021/12/07 07:13:12;;;;;;;11.07;10.57;;;;;;;1.14;99.65;91408.22;5025717;28;20211;-77
2021/12/07 07:15:38;;;;;;;11.40;10.80;;;;;;;1.29;100.00;91425.50;5044937;28;20316;-77
2021/12/07 07:18:03;;;;;;;11.93;11.23;;;;;;;1.49;100.00;91412.72;5030823;28;20290;-78
2021/12/07 07:20:29;;;;;;;10.73;10.13;;;;;;;1.33;99.95;91424.75;5030146;28;20226;-77
2021/12/07 07:22:54;;;;;;;11.63;10.87;;;;;;;1.41;99.54;91426.84;5030475;28;20190;-76
2021/12/07 07:25:20;;;;;;;11.50;11.00;;;;;;;1.09;99.00;91404.88;5028621;28;20239;-77
2021/12/07 07:27:46;;;;;;;11.37;10.73;;;;;;;1.32;99.19;91430.91;5027330;28;20241;-76
2021/12/07 07:30:15;;;;;;;11.50;10.90;;;;;;;1.19;99.96;91433.94;5028362;28;20203;-76
2021/12/07 07:32:40;;;;;;;11.07;10.43;;;;;;;1.13;100.00;91414.41;5029358;28;21178;-76
2021/12/07 07:35:08;;;;;;;12.07;11.47;;;;;;;1.15;99.50;91412.31;5029459;28;20179;-76
2021/12/07 07:37:34;;;;;;;12.03;11.43;;;;;;;1.38;100.00;91416.28;5028001;28;20268;-76
2021/12/07 07:40:00;;;;;;;11.23;10.63;;;;;;;1.25;98.97;91409.81;5061789;28;20195;-77
2021/12/07 07:42:26;;;;;;;11.67;11.17;;;;;;;1.29;99.39;91400.56;5028601;28;20183;-76
2021/12/07 07:44:51;;;;;;;11.30;10.77;;;;;;;1.31;99.76;91406.22;5029540;28;20217;-78
2021/12/07 07:47:16;;;;;;;12.00;11.30;;;;;;;1.48;99.70;91426.59;5029347;28;20237;-78
2021/12/07 07:49:42;;;;;;;10.73;10.23;;;;;;;1.33;99.20;91408.53;5029750;28;20205;-76
2021/12/07 07:52:07;;;;;;;11.90;11.30;;;;;;;1.26;99.87;91408.78;5029139;28;20215;-79
2021/12/07 07:54:33;;;;;;;12.87;12.17;;;;;;;1.37;99.61;91392.38;5031040;28;20195;-79
2021/12/07 07:56:58;;;;;;;12.33;11.73;;;;;;;1.32;99.24;91400.06;5028309;28;20269;-77
2021/12/07 07:59:24;;;;;;;12.43;11.83;;;;;;;1.14;100.00;91400.50;5030921;28;20199;-79
2021/12/07 08:01:50;;;;;;;12.20;11.57;;;;;;;1.25;99.71;91381.53;5029276;28;20290;-78
2021/12/07 08:04:15;;;;;;;12.53;11.77;;;;;;;1.28;99.24;91411.88;5029425;28;20276;-77
2021/12/07 08:06:41;;;;;;;13.40;12.60;;;;;;;1.26;99.68;91413.16;5028834;28;20222;-77
2021/12/07 08:09:08;;;;;;;12.27;11.47;;;;;;;1.29;99.38;91408.28;5024695;28;20182;-77
2021/12/07 08:11:34;;;;;;;11.43;10.83;;;;;;;1.03;100.00;91362.97;5023472;28;20302;-77
2021/12/07 08:14:00;;;;;;;13.57;12.77;;;;;;;1.18;100.00;91424.69;5025302;28;20202;-77
2021/12/07 08:16:26;;;;;;;14.97;13.73;;;;;;;1.05;100.00;91421.81;5027758;28;20231;-78
2021/12/07 08:18:52;;;;;;;13.20;12.27;;;;;;;0.99;100.00;91418.44;5028742;28;20218;-72
2021/12/07 08:21:19;;;;;;;12.93;12.03;;;;;;;0.96;100.00;91415.59;5028297;28;20233;-77
2021/12/07 08:23:45;;;;;;;221.53;38.23;;;;;;;1.18;100.00;91429.06;5030435;28;20202;-77
2021/12/07 08:26:14;;;;;;;13.50;12.43;;;;;;;1.19;100.00;91438.31;5026681;28;20218;-77
2021/12/07 08:28:41;;;;;;;12.37;11.57;;;;;;;1.08;100.00;91421.28;5022282;28;20202;-76
2021/12/07 08:31:07;;;;;;;12.00;11.23;;;;;;;1.24;100.00;91431.41;5028823;28;20263;-77
2021/12/07 08:33:33;;;;;;;13.53;12.73;;;;;;;1.08;99.96;91422.06;5028686;28;20190;-78
2021/12/07 08:36:00;;;;;;;12.13;11.43;;;;;;;1.08;100.00;91436.72;5027587;28;20286;-77
2021/12/07 08:38:26;;;;;;;13.53;12.63;;;;;;;1.10;100.00;91435.47;5027208;28;20294;-77
2021/12/07 08:40:54;;;;;;;11.50;10.83;;;;;;;1.01;100.00;91400.22;5026871;28;20230;-77
2021/12/07 08:43:22;;;;;;;12.50;11.57;;;;;;;1.10;100.00;91430.31;5028961;28;20262;-76
2021/12/07 08:45:49;;;;;;;12.53;11.83;;;;;;;1.10;100.00;91440.59;5029725;28;20237;-79
2021/12/07 08:48:16;;;;;;;11.63;11.00;;;;;;;1.20;99.56;91450.91;5029035;28;20262;-77
2021/12/07 08:50:42;;;;;;;11.97;11.07;;;;;;;1.01;99.82;91428.47;5026935;28;20231;-77
2021/12/07 08:53:11;;;;;;;12.23;11.53;;;;;;;1.35;98.92;91458.66;5029339;28;20205;-79
2021/12/07 09:01:07;;;;;;;16.67;15.27;;;;;;;1.03;100.00;91460.59;5026257;28;20229;-78
2021/12/07 09:03:33;;;;;;;18.27;16.53;;;;;;;1.07;100.00;91469.38;5028910;28;20191;-78
2021/12/07 09:05:58;;;;;;;26.23;15.83;;;;;;;0.86;100.00;91444.56;5027444;28;20225;-79
2021/12/07 09:08:24;;;;;;;15.87;14.53;;;;;;;0.91;100.00;91457.44;5028864;28;20263;-78
2021/12/07 09:10:51;;;;;;;15.70;14.50;;;;;;;1.08;100.00;91465.75;5028637;28;20211;-77
2021/12/07 09:13:17;;;;;;;15.50;14.50;;;;;;;1.08;100.00;91463.19;5026648;28;20211;-78
2021/12/07 09:15:42;;;;;;;14.97;13.93;;;;;;;0.77;100.00;91410.09;5028384;28;20254;-84
2021/12/07 09:18:08;;;;;;;14.03;13.03;;;;;;;0.73;100.00;91414.19;5029209;28;20194;-78
2021/12/07 09:20:35;;;;;;;13.63;12.60;;;;;;;1.12;99.58;91435.97;5025186;28;20251;-79
2021/12/07 09:23:00;;;;;;;14.30;13.33;;;;;;;0.95;99.24;91432.78;5029194;28;20218;-78
2021/12/07 09:25:27;;;;;;;14.63;13.73;;;;;;;1.01;99.84;91429.22;5028505;28;20227;-79
2021/12/07 09:27:52;;;;;;;14.60;13.63;;;;;;;1.11;99.91;91436.22;5028997;28;20190;-81
2021/12/07 09:30:19;;;;;;;13.70;12.90;;;;;;;1.10;99.23;91452.66;5028553;28;20261;-79
2021/12/07 09:32:46;;;;;;;14.10;13.10;;;;;;;1.20;99.67;91445.75;5028828;28;20222;-80
2021/12/07 09:35:13;;;;;;;12.87;12.07;;;;;;;1.26;98.43;91455.03;5026919;28;20201;-79
2021/12/07 09:37:39;;;;;;;10.33;9.83;;;;;;;1.25;98.12;91435.50;5027846;28;21254;-79
2021/12/07 09:40:13;;;;;;;12.50;11.90;;;;;;;1.11;98.57;91442.13;5027802;28;20197;-80
2021/12/07 09:42:39;;;;;;;11.33;10.73;;;;;;;1.15;98.23;91447.56;5028960;28;20194;-79
2021/12/07 09:45:08;;;;;;;11.93;11.43;;;;;;;1.16;98.59;91444.72;5028292;28;20207;-81
2021/12/07 09:47:33;;;;;;;12.90;12.00;;;;;;;1.23;97.44;91436.78;5028695;28;20207;-80
2021/12/07 09:49:59;;;;;;;12.67;11.97;;;;;;;1.08;97.22;91426.44;5028342;28;20250;-78
2021/12/07 09:52:25;;;;;;;12.50;11.80;;;;;;;0.92;98.02;91428.16;5028234;28;20191;-82
2021/12/07 09:54:51;;;;;;;13.17;12.33;;;;;;;1.16;98.71;91429.31;5027968;28;20183;-79
2021/12/07 09:57:17;;;;;;;12.57;11.77;;;;;;;1.42;97.64;91428.38;5026468;28;20222;-79
2021/12/07 09:59:42;;;;;;;13.60;12.60;;;;;;;1.49;97.87;91428.91;5026649;28;20207;-81
2021/12/07 10:02:08;;;;;;;12.83;11.97;;;;;;;1.38;97.24;91439.41;5026456;28;20219;-81
2021/12/07 10:04:34;;;;;;;12.73;11.83;;;;;;;1.58;97.49;91440.25;5027385;28;21146;-80
2021/12/07 10:07:00;;;;;;;13.23;12.40;;;;;;;1.55;94.53;91430.50;5027260;28;20219;-84
2021/12/07 10:09:26;;;;;;;13.67;12.87;;;;;;;1.06;96.43;91418.97;5027467;28;20201;-79
2021/12/07 10:11:53;;;;;;;12.70;11.90;;;;;;;1.43;96.52;91439.44;5028593;28;20226;-79
2021/12/07 10:14:19;;;;;;;15.37;14.47;;;;;;;1.72;96.51;91437.97;5028595;28;20226;-79
2021/12/07 10:16:46;;;;;;;14.03;13.03;;;;;;;1.78;94.29;91423.31;5028066;28;20223;-78
2021/12/07 10:19:15;;;;;;;15.30;14.30;;;;;;;1.69;95.55;91417.91;5028514;28;20186;-81
2021/12/07 10:21:43;;;;;;;12.40;11.70;;;;;;;1.55;95.60;91425.34;5025849;28;20223;-78
2021/12/07 10:24:11;;;;;;;12.47;11.80;;;;;;;1.39;94.50;91412.69;5031195;28;20296;-78
2021/12/07 10:26:42;;;;;;;12.90;12.10;;;;;;;1.27;96.35;91407.78;5031254;28;20231;-76
2021/12/07 10:29:12;;;;;;;13.00;12.30;;;;;;;1.44;96.36;91420.41;5030204;28;20215;-76
2021/12/07 10:31:45;;;;;;;14.47;13.60;;;;;;;1.25;95.43;91393.59;5033282;28;20226;-76
2021/12/07 10:34:17;;;;;;;14.77;13.87;;;;;;;1.16;97.02;91377.91;5031789;28;20293;-76
2021/12/07 10:36:44;;;;;;;14.40;13.43;;;;;;;1.38;95.11;91404.22;5025888;28;20269;-76
2021/12/07 10:39:24;;;;;;;14.27;13.07;;;;;;;1.25;96.91;91421.88;5028534;28;20195;-76
2021/12/07 10:41:49;;;;;;;14.50;13.50;;;;;;;1.23;96.87;91416.25;5031520;28;20257;-75
2021/12/07 10:44:23;;;;;;;14.07;12.67;;;;;;;1.54;96.20;91421.22;5031266;28;20191;-74
2021/12/07 10:46:59;;;;;;;13.70;12.87;;;;;;;1.63;95.41;91426.66;5030482;28;20260;-76
2021/12/07 10:49:30;;;;;;;12.93;12.03;;;;;;;1.29;96.01;91423.69;5031450;28;20212;-75
2021/12/07 10:51:58;;;;;;;15.53;14.57;;;;;;;1.13;98.97;91418.75;5030247;28;20234;-76
2021/12/07 10:54:25;;;;;;;16.33;15.13;;;;;;;0.93;98.08;91409.16;5029285;28;20266;-76
2021/12/07 10:56:51;;;;;;;14.87;13.57;;;;;;;0.90;97.67;91419.91;5029890;28;20242;-75
2021/12/07 10:59:17;;;;;;;12.73;11.97;;;;;;;1.04;96.82;91415.88;5031814;28;20265;-76
2021/12/07 11:01:46;;;;;;;12.30;11.60;;;;;;;1.09;96.83;91403.06;5030054;28;20207;-76
2021/12/07 11:04:31;;;;;;;12.67;11.97;;;;;;;1.00;97.08;91398.66;5029728;28;20195;-74
2021/12/07 11:07:05;;;;;;;13.27;12.47;;;;;;;0.99;97.86;91397.91;5029501;28;20261;-75
2021/12/07 11:09:54;;;;;;;14.27;13.57;;;;;;;0.81;97.86;91395.72;5030410;28;20188;-76
2021/12/07 11:12:20;;;;;;;11.80;11.20;;;;;;;0.60;97.33;91354.81;5028850;28;20306;-76
2021/12/07 11:14:53;;;;;;;14.70;13.90;;;;;;;0.94;97.51;91385.03;5031629;28;20178;-76
2021/12/07 11:17:31;;;;;;;15.33;14.37;;;;;;;0.95;96.95;91394.25;5030451;28;20235;-77
2021/12/07 11:19:58;;;;;;;16.53;15.30;;;;;;;0.97;97.27;91384.53;5028797;28;20263;-76
2021/12/07 11:22:27;;;;;;;15.93;14.73;;;;;;;1.00;98.00;91402.00;5027590;28;20183;-76
2021/12/07 11:24:54;;;;;;;15.80;14.40;;;;;;;1.10;98.07;91408.97;5030454;28;20190;-76
2021/12/07 11:30:16;;;;;;;13.40;12.60;;;;;;;1.27;96.11;91405.19;5028578;28;20193;-77
2021/12/07 11:32:51;;;;;;;13.77;12.93;;;;;;;1.21;96.28;91395.94;5028594;28;20213;-77
2021/12/07 11:35:24;;;;;;;13.27;12.43;;;;;;;1.11;95.60;91362.47;5028309;28;20237;-78
2021/12/07 11:37:50;;;;;;;12.57;11.67;;;;;;;1.07;95.05;91374.28;5030686;28;20223;-76
2021/12/07 11:40:24;;;;;;;12.20;11.50;;;;;;;1.22;93.53;91356.34;5028880;28;20242;-76
2021/12/07 11:42:49;;;;;;;11.20;10.60;;;;;;;1.19;91.65;91362.00;5030238;28;20338;-76
2021/12/07 11:45:23;;;;;;;12.10;11.40;;;;;;;1.25;91.61;91385.91;5029989;28;20225;-77
2021/12/07 11:47:51;;;;;;;13.17;12.27;;;;;;;1.20;91.07;91389.22;5031197;28;20262;-79
2021/12/07 11:50:16;;;;;;;12.53;11.83;;;;;;;0.92;91.96;91399.91;5029690;28;20244;-78
2021/12/07 11:52:42;;;;;;;11.93;11.33;;;;;;;0.76;93.28;91395.72;5028156;28;20218;-77
2021/12/07 12:13:23;;;;;;;13.30;12.60;;;;;;;0.65;97.55;91381.28;5103511;27;20581;-78
2021/12/07 12:16:17;;;;;;;11.83;11.23;;;;;;;0.88;94.39;91391.16;5077636;27;20222;-79
2021/12/07 12:18:46;;;;;;;12.20;11.60;;;;;;;0.70;94.34;91386.44;5051777;28;20203;-80
2021/12/07 12:21:38;;;;;;;11.97;11.30;;;;;;;0.85;94.81;91386.53;5052775;28;20630;-78
2021/12/07 12:24:40;;;;;;;12.97;12.37;;;;;;;0.83;94.59;91383.44;5053765;28;20201;-78
2021/12/07 12:27:16;;;;;;;12.03;11.37;;;;;;;0.83;93.01;91356.97;5032807;28;20236;-78
2021/12/07 12:29:44;;;;;;;12.00;11.30;;;;;;;0.55;92.82;91349.63;5033936;28;20250;-79
2021/12/07 12:32:09;;;;;;;12.83;11.93;;;;;;;0.65;93.83;91360.75;5051832;28;20232;-77
2021/12/07 12:34:47;;;;;;;12.60;12.00;;;;;;;0.95;92.62;91373.72;5052896;28;20217;-77
2021/12/07 12:37:22;;;;;;;13.60;12.67;;;;;;;0.72;93.38;91378.47;5049735;28;20263;-77
2021/12/07 12:39:51;;;;;;;12.90;12.10;;;;;;;0.64;93.86;91374.59;5054399;28;20221;-76
2021/12/07 12:42:38;;;;;;;14.13;13.33;;;;;;;0.73;93.20;91378.22;5054797;28;20221;-77
2021/12/07 12:45:20;;;;;;;11.83;10.90;;;;;;;0.73;94.69;91382.59;5085153;28;20202;-78
2021/12/07 12:47:54;;;;;;;14.57;13.50;;;;;;;0.77;93.72;91379.28;5053478;28;20270;-78
2021/12/07 12:50:33;;;;;;;14.17;13.23;;;;;;;0.75;92.35;91389.03;5050853;28;20293;-78
2021/12/07 12:53:03;;;;;;;11.70;11.10;;;;;;;0.69;92.77;91386.69;5054344;28;20244;-77
2021/12/07 12:55:51;;;;;;;11.83;11.23;;;;;;;0.65;92.08;91388.22;5046337;28;20298;-78
2021/12/07 12:58:20;;;;;;;11.57;10.93;;;;;;;0.75;92.52;91396.72;5024668;28;20198;-77
2021/12/07 13:01:10;;;;;;;11.90;11.30;;;;;;;0.64;91.47;91395.13;5025997;28;20241;-78
2021/12/07 13:03:50;;;;;;;15.23;14.13;;;;;;;0.66;91.36;91392.31;5023586;28;20197;-79
2021/12/07 13:06:41;;;;;;;12.37;11.77;;;;;;;0.61;91.14;91395.63;5024046;28;20241;-77
2021/12/07 13:09:11;;;;;;;12.47;11.77;;;;;;;0.70;91.89;91395.94;5025152;28;20202;-77
2021/12/07 13:11:57;;;;;;;12.77;12.03;;;;;;;0.68;90.92;91401.34;5024612;28;20234;-78
2021/12/07 13:14:23;;;;;;;13.83;12.70;;;;;;;0.56;91.37;91385.31;5025705;28;20199;-78
2021/12/07 13:17:11;;;;;;;14.57;13.67;;;;;;;0.32;92.42;91371.34;5025310;28;20254;-76
2021/12/07 13:20:14;;;;;;;14.57;13.60;;;;;;;0.60;93.65;91388.19;5023591;28;20266;-79
2021/12/07 13:23:14;;;;;;;10.87;10.37;;;;;;;0.64;91.01;91391.81;5020987;28;20227;-78
2021/12/07 13:25:51;;;;;;;12.33;11.63;;;;;;;0.47;90.86;91391.19;5010883;28;20785;-77
2021/12/07 13:28:31;;;;;;;13.57;12.87;;;;;;;0.62;91.35;91389.50;5010065;28;20187;-77
2021/12/07 13:31:00;;;;;;;12.13;11.43;;;;;;;0.56;90.33;91400.72;5011687;28;20836;-80
2021/12/07 13:33:52;;;;;;;11.83;11.10;;;;;;;0.40;90.08;91393.97;5012099;28;20250;-78
2021/12/07 13:36:37;;;;;;;13.10;12.20;;;;;;;0.29;90.82;91376.97;5010264;28;20227;-76
2021/12/07 13:39:27;;;;;;;13.27;12.27;;;;;;;0.44;90.90;91402.72;5011570;28;20206;-78
2021/12/07 13:42:16;;;;;;;10.50;10.00;;;;;;;0.33;88.89;91408.78;5010678;28;20686;-77
2021/12/07 13:45:22;;;;;;;13.23;12.43;;;;;;;0.30;90.26;91390.53;5012059;28;20199;-76
2021/12/07 13:47:51;;;;;;;12.83;11.97;;;;;;;0.36;89.42;91408.31;5011146;28;20238;-76
2021/12/07 13:50:16;;;;;;;14.53;13.53;;;;;;;0.28;91.15;91406.19;5011829;28;20235;-76
2021/12/07 13:52:46;;;;;;;13.10;12.30;;;;;;;0.24;91.54;91417.19;5011074;28;20223;-76
2021/12/07 13:55:14;;;;;;;12.60;11.80;;;;;;;0.31;91.05;91417.78;5011275;28;20199;-77
2021/12/07 13:57:42;;;;;;;17.60;16.67;;;;;;;0.22;89.45;91422.56;5011523;28;20196;-77
2021/12/07 14:00:25;;;;;;;14.03;13.10;;;;;;;0.23;91.10;91421.56;5012914;28;20191;-76
2021/12/07 14:02:55;;;;;;;13.93;13.03;;;;;;;0.11;91.20;91420.19;5071317;28;21207;-76
2021/12/07 14:05:33;;;;;;;11.97;11.23;;;;;;;0.14;91.39;91429.97;5036312;28;20240;-77
2021/12/07 14:08:00;;;;;;;11.60;11.00;;;;;;;0.00;92.18;91409.84;5035708;28;20213;-76
2021/12/07 14:10:55;;;;;;;12.63;11.63;;;;;;;0.00;91.94;91420.09;5038992;28;20230;-76
2021/12/07 14:13:22;;;;;;;11.77;11.10;;;;;;;0.03;92.27;91436.81;5038339;28;20207;-76
2021/12/07 14:15:49;;;;;;;13.00;12.20;;;;;;;0.09;93.27;91423.00;5036913;28;20248;-74
2021/12/07 14:18:22;;;;;;;14.27;13.33;;;;;;;-0.03;93.52;91435.19;5038468;28;20230;-77
2021/12/07 14:20:57;;;;;;;13.47;12.47;;;;;;;-0.06;94.47;91435.69;5038816;28;20234;-77
2021/12/07 14:23:33;;;;;;;11.57;10.80;;;;;;;0.03;94.23;91429.13;5037294;28;20189;-79